• Join FlightAware (Why Join?)
  • Login
  • US Flag 
02:57PM EDT


 

Airport Tracker/Info


-or-


 

Live Flight TrackerFlight Track Log ✈ N28434 ✈ 11-May-2013 ✈ KMLT - KBVY

Flight Track Log - Related Links

Times and Time Zones

All times are in EDT time to prevent confusion due to time zone crossing. See the N28434 flight status page for this flight to view local times or setup timezone preferences in your user account.

Time Position Orientation Groundspeed Altitude Reporting Facility
EDT Latitude Longitude Course Direction KTS MPH feet Rate Location/Type
05:46PM 45.5076 -68.7936 204° Southwest  Level Estimated
05:46PM 45.6136 -68.7075 204° Southwest 123 142 4,000  Level Boston Center
05:47PM 45.5975 -68.7233 215° Southwest 79 91 3,100 -240 Descending Boston Center
05:48PM 45.5836 -68.7419 223° Southwest 74 85 3,600 360 Climbing Boston Center
05:49PM 45.5672 -68.7550 209° Southwest 69 79 3,900 180 Climbing Boston Center
05:50PM 45.5489 -68.7681 207° Southwest 75 86 4,000  Climbing Boston Center
05:51PM 45.5289 -68.7900 218° Southwest 80 92 4,000  Level Boston Center
05:52PM 45.5086 -68.8092 214° Southwest 85 98 4,000  Level Boston Center
05:53PM 45.4858 -68.8106 182° South 85 98 4,000 -60 Level Boston Center
05:54PM 45.4622 -68.7942 154° Southeast 85 98 3,900  Descending Boston Center
05:55PM 45.4372 -68.7900 173° South 85 98 4,000  Climbing Boston Center
05:56PM 45.4189 -68.8058 211° Southwest 80 92 4,000  Level Boston Center
05:57PM 45.4028 -68.8247 219° Southwest 80 92 4,000  Level Boston Center
05:58PM 45.3803 -68.8408 207° Southwest 86 99 4,000  Level Boston Center
05:59PM 45.3603 -68.8597 214° Southwest 86 99 4,000  Level Boston Center
06:00PM 45.3372 -68.8583 178° South 86 99 4,000  Level Boston Center
06:01PM 45.3156 -68.8331 141° Southeast 86 99 4,000  Level Boston Center
06:02PM 45.2878 -68.8111 151° Southeast 96 110 4,000  Level Boston Center
06:04PM 45.2622 -68.7950 156° South 101 116 4,000  Level Boston Center
06:05PM 45.2311 -68.7942 179° South 91 105 4,000  Level Boston Center
06:06PM 45.2031 -68.7692 148° Southeast 91 105 4,000  Level Boston Center
06:07PM 45.1758 -68.7622 170° South 91 105 4,000  Level Boston Center
06:08PM 45.1578 -68.7869 224° Southwest 81 93 4,000  Level Boston Center
06:09PM 45.1436 -68.7994 212° Southwest 81 93 4,100  Climbing Boston Center
06:10PM 45.1256 -68.8183 216° Southwest 81 93 4,000 -60 Descending Boston Center
06:11PM 45.1072 -68.8372 216° Southwest 81 93 4,000  Level Boston Center
06:12PM 45.0914 -68.8586 224° Southwest 81 93 4,000  Level Boston Center
06:13PM 45.0711 -68.8775 213° Southwest 81 93 4,000  Level Boston Center
06:15PM 45.0575 -68.9289 250° West  Level FlightAware Approximate
06:22PM 44.9674 -69.1311 214° Southwest  Level FlightAware Approximate
06:23PM 44.9467 -69.1511 214° Southwest  Level FlightAware Approximate
06:24PM 44.9261 -69.1711 214° Southwest  Level FlightAware Approximate
06:25PM 44.9054 -69.1910 214° Southwest  Level FlightAware Approximate
06:26PM 44.8848 -69.2109 214° Southwest  Level FlightAware Approximate
06:27PM 44.8642 -69.2309 214° Southwest  Level FlightAware Approximate
06:28PM 44.8435 -69.2508 214° Southwest  Level FlightAware Approximate
06:29PM 44.8228 -69.2707 214° Southwest  Level FlightAware Approximate
06:30PM 44.8022 -69.2905 214° Southwest  Level FlightAware Approximate
06:31PM 44.7815 -69.3104 214° Southwest  Level FlightAware Approximate
06:32PM 44.7609 -69.3302 214° Southwest  Level FlightAware Approximate
06:33PM 44.7402 -69.3501 214° Southwest  Level FlightAware Approximate
06:34PM 44.7195 -69.3699 214° Southwest  Level FlightAware Approximate
06:35PM 44.6988 -69.3897 214° Southwest  Level FlightAware Approximate
06:36PM 44.6782 -69.4095 214° Southwest  Level FlightAware Approximate
06:37PM 44.6575 -69.4292 214° Southwest  Level FlightAware Approximate
06:38PM 44.6368 -69.4490 214° Southwest  Level FlightAware Approximate
06:39PM 44.6161 -69.4688 214° Southwest  Level FlightAware Approximate
06:40PM 44.5954 -69.4885 214° Southwest  Level FlightAware Approximate
06:41PM 44.5749 -69.5085 216° Southwest  Level FlightAware Approximate
06:42PM 44.5545 -69.5289 216° Southwest  Level FlightAware Approximate
06:43PM 44.5342 -69.5493 216° Southwest  Level FlightAware Approximate
06:44PM 44.5139 -69.5697 216° Southwest  Level FlightAware Approximate
06:45PM 44.4935 -69.5901 216° Southwest  Level FlightAware Approximate
06:46PM 44.4731 -69.6105 216° Southwest  Level FlightAware Approximate
06:47PM 44.4528 -69.6309 216° Southwest  Level FlightAware Approximate
06:48PM 44.4324 -69.6512 216° Southwest  Level FlightAware Approximate
06:49PM 44.4121 -69.6715 216° Southwest  Level FlightAware Approximate
06:50PM 44.3917 -69.6919 215° Southwest  Level FlightAware Approximate
06:51PM 44.3713 -69.7122 215° Southwest  Level FlightAware Approximate
06:52PM 44.3510 -69.7325 215° Southwest  Level FlightAware Approximate
06:53PM 44.3305 -69.7526 214° Southwest  Level FlightAware Approximate
06:54PM 44.3098 -69.7721 214° Southwest  Level FlightAware Approximate
06:55PM 44.2890 -69.7916 214° Southwest  Level FlightAware Approximate
06:56PM 44.2682 -69.8110 214° Southwest  Level FlightAware Approximate
06:57PM 44.2474 -69.8305 214° Southwest  Level FlightAware Approximate
06:58PM 44.2267 -69.8499 214° Southwest  Level FlightAware Approximate
06:59PM 44.2059 -69.8693 214° Southwest  Level FlightAware Approximate
07:00PM 44.1851 -69.8887 214° Southwest  Level FlightAware Approximate
07:01PM 44.1643 -69.9081 214° Southwest  Level FlightAware Approximate
07:02PM 44.1435 -69.9274 214° Southwest  Level FlightAware Approximate
07:03PM 44.1227 -69.9468 214° Southwest  Level FlightAware Approximate
07:04PM 44.1019 -69.9661 214° Southwest  Level FlightAware Approximate
07:05PM 44.0811 -69.9854 214° Southwest  Level FlightAware Approximate
07:06PM 44.0603 -70.0049 214° Southwest  Level FlightAware Approximate
07:07PM 44.0396 -70.0243 214° Southwest  Level FlightAware Approximate
07:08PM 44.0188 -70.0437 214° Southwest  Level FlightAware Approximate
07:09PM 43.9981 -70.0631 214° Southwest  Level FlightAware Approximate
07:10PM 43.9773 -70.0825 214° Southwest  Level FlightAware Approximate
07:11PM 43.9566 -70.1019 214° Southwest  Level FlightAware Approximate
07:12PM 43.9358 -70.1213 214° Southwest  Level FlightAware Approximate
07:13PM 43.9150 -70.1406 214° Southwest  Level FlightAware Approximate
07:14PM 43.8943 -70.1599 214° Southwest  Level FlightAware Approximate
07:15PM 43.8735 -70.1793 214° Southwest  Level FlightAware Approximate
07:16PM 43.8527 -70.1986 214° Southwest  Level FlightAware Approximate
07:17PM 43.8319 -70.2179 214° Southwest  Level FlightAware Approximate
07:18PM 43.8111 -70.2371 214° Southwest  Level FlightAware Approximate
07:19PM 43.7904 -70.2564 214° Southwest  Level FlightAware Approximate
07:20PM 43.7696 -70.2757 214° Southwest  Level FlightAware Approximate
07:21PM 43.7488 -70.2949 214° Southwest  Level FlightAware Approximate
07:22PM 43.7280 -70.3141 214° Southwest  Level FlightAware Approximate
07:23PM 43.7072 -70.3333 214° Southwest  Level FlightAware Approximate
07:24PM 43.6864 -70.3525 214° Southwest  Level FlightAware Approximate
07:25PM 43.6656 -70.3717 214° Southwest  Level FlightAware Approximate
07:26PM 43.6448 -70.3909 214° Southwest  Level FlightAware Approximate
07:27PM 43.6240 -70.4101 214° Southwest  Level FlightAware Approximate
07:28PM 43.6031 -70.4292 214° Southwest  Level FlightAware Approximate
07:29PM 43.5823 -70.4483 214° Southwest  Level FlightAware Approximate
07:30PM 43.5615 -70.4675 214° Southwest  Level FlightAware Approximate
07:31PM 43.5407 -70.4866 214° Southwest  Level FlightAware Approximate
07:32PM 43.5198 -70.5057 214° Southwest  Level FlightAware Approximate
07:32PM 43.4833 -70.4500 207° Southwest 93 107 4,000  Level KA90
07:33PM 43.4990 -70.5247 214° Southwest  Level FlightAware Approximate
07:33PM 43.4667 -70.4833 235° Southwest 93 107 4,000  Level KA90
07:34PM 43.4782 -70.5438 214° Southwest  Level FlightAware Approximate
07:34PM 43.4500 -70.5000 216° Southwest 95 109 4,000  Level KA90
07:35PM 43.4573 -70.5629 214° Southwest  Level FlightAware Approximate
07:35PM 43.4167 -70.5167 200° South 101 116 3,900  Level KA90
07:36PM 43.4365 -70.5819 214° Southwest  Level FlightAware Approximate
07:36PM 43.3833 -70.5333 200° South 103 119 4,000  Level KA90
07:37PM 43.4156 -70.6008 207° Southwest  Level FlightAware Approximate
07:37PM 43.3667 -70.5500 216° Southwest 101 116 4,000  Level KA90
07:38PM 43.3500 -70.5667 216° Southwest 98 113 4,000  Level KA90
07:39PM 43.3167 -70.5833 200° South 96 110 4,000  Level KA90
07:40PM 43.3000 -70.6000 216° Southwest 100 115 4,000  Level KA90
07:41PM 43.2667 -70.6167 200° South 99 114 4,000  Level KA90
07:42PM 43.2333 -70.6333 200° South 103 119 4,000  Level KA90
07:43PM 43.2167 -70.6500 216° Southwest 102 117 4,000  Level KA90
07:44PM 43.1833 -70.6667 200° South 101 116 4,000  Level KA90
07:45PM 43.1667 -70.7000 236° Southwest 99 114 4,000  Level KA90
07:46PM 43.1333 -70.7167 200° South 110 127 4,000  Level KA90
07:47PM 43.1167 -70.7333 216° Southwest 106 122 4,000 -60 Level KA90
07:48PM 43.1000 -70.7500 216° Southwest 103 119 3,900  Descending KA90
07:49PM 43.0667 -70.7667 200° South 96 110 4,000  Climbing KA90
07:50PM 43.0500 -70.7833 216° Southwest 95 109 4,000  Level KA90
07:51PM 43.0333 -70.8000 216° Southwest 100 115 4,000 -120 Level KA90
07:52PM 43.0000 -70.8167 200° South 100 115 3,800 -240 Descending KA90
07:53PM 42.9833 -70.8500 236° Southwest 80 92 3,600 -420 Descending KA90
07:54PM 42.9667 -70.8833 236° Southwest 107 123 3,100 -360 Descending KA90
07:55PM 42.9500 -70.9000 216° Southwest 100 115 3,000 -120 Descending KA90
07:56PM 42.9500 -70.9333 270° West 95 109 2,900 -60 Descending KA90
07:57PM 42.9500 -70.9667 270° West 91 105 2,900  Level KA90
07:58PM 42.9333 -71.0000 236° Southwest 87 100 2,900  Level KA90
07:59PM 42.9167 -71.0167 216° Southwest 89 102 3,000  Climbing KA90
08:00PM 42.8833 -71.0333 200° South 85 98 3,000  Level KA90
08:01PM 42.8667 -71.0333 180° South 85 98 3,000 -120 Level KA90
08:02PM 42.8500 -71.0500 216° Southwest 85 98 2,800 -360 Descending KA90
08:03PM 42.8167 -71.0500 180° South 88 101 2,300 -480 Descending KA90
08:04PM 42.8000 -71.0667 216° Southwest 86 99 2,000 -180 Descending KA90
08:05PM 42.7833 -71.0833 216° Southwest 90 104 2,000  Level KA90
08:06PM 42.7500 -71.0833 180° South 90 104 2,100 -60 Climbing KA90
08:07PM 42.7333 -71.0833 180° South 91 105 1,900 -180 Descending KA90
08:08PM 42.7167 -71.0500 124° Southeast 95 109 1,800 -60 Descending KA90
08:09PM 42.6833 -71.0333 160° South 95 109 1,800  Level KA90
08:10PM 42.6667 -71.0167 144° Southeast 90 104 1,900 60 Climbing KA90